Time;durP1;ratioP1;P1;durP2;ratioP2;P2;SDS_P1;SDS_P2;PMS_P1;PMS_P2;Temp;Humidity;BMP_temperature;BMP_pressure;BME280_temperature;BME280_humidity;BME280_pressure;Samples;Min_cycle;Max_cycle;Signal;HPM_P1;HPM_P2
2022/04/20 00:01:33;;;;;;;6.60;4.22;;;6.70;69.20;;;;;;5048856;28;20091;-65
2022/04/20 00:03:58;;;;;;;7.53;4.20;;;6.70;69.40;;;;;;5044632;28;20041;-65
2022/04/20 00:06:25;;;;;;;8.20;3.95;;;6.60;69.40;;;;;;5050454;28;20513;-65
2022/04/20 00:08:50;;;;;;;6.70;4.07;;;6.60;69.60;;;;;;5047433;28;20045;-66
2022/04/20 00:11:16;;;;;;;7.22;4.47;;;6.50;69.70;;;;;;5038731;28;20044;-65
2022/04/20 00:13:41;;;;;;;7.32;4.18;;;6.60;69.90;;;;;;5030972;28;20462;-65
2022/04/20 00:16:07;;;;;;;8.18;4.60;;;6.40;69.80;;;;;;5044727;28;20047;-65
2022/04/20 00:18:32;;;;;;;7.75;4.40;;;6.40;70.20;;;;;;5044157;28;20033;-65
2022/04/20 00:20:58;;;;;;;6.45;3.92;;;6.30;70.30;;;;;;5037498;28;20035;-65
2022/04/20 00:23:23;;;;;;;8.50;4.80;;;6.30;70.40;;;;;;5037059;28;20041;-65
2022/04/20 00:25:49;;;;;;;8.27;4.43;;;6.30;70.40;;;;;;5045672;28;20363;-66
2022/04/20 00:28:14;;;;;;;9.77;4.32;;;6.30;70.80;;;;;;5044811;28;20517;-65
2022/04/20 00:30:40;;;;;;;6.95;4.18;;;6.30;70.90;;;;;;5063352;28;20523;-65
2022/04/20 00:33:05;;;;;;;10.32;4.47;;;6.20;70.90;;;;;;5047169;28;20108;-64
2022/04/20 00:35:31;;;;;;;8.82;4.50;;;6.10;71.00;;;;;;5043263;28;20068;-66
2022/04/20 00:37:57;;;;;;;7.95;4.50;;;6.10;71.20;;;;;;5037035;28;20046;-65
2022/04/20 00:40:23;;;;;;;7.30;4.40;;;6.10;72.10;;;;;;5042530;28;20036;-65
2022/04/20 00:42:48;;;;;;;8.23;4.47;;;6.00;71.60;;;;;;5030142;28;20045;-65
2022/04/20 00:45:14;;;;;;;6.35;4.40;;;6.00;71.60;;;;;;5029556;28;20480;-65
2022/04/20 00:47:44;;;;;;;8.77;4.30;;;6.00;71.90;;;;;;5046798;28;20038;-65
2022/04/20 00:50:11;;;;;;;;;;;5.90;72.00;;;;;;5040439;28;20052;-67
2022/04/20 00:52:36;;;;;;;7.10;4.05;;;5.90;73.40;;;;;;5028316;28;19928;-65
2022/04/20 00:55:03;;;;;;;9.27;4.63;;;5.90;72.10;;;;;;5029696;28;20045;-66
2022/04/20 00:57:29;;;;;;;9.10;4.68;;;5.80;72.10;;;;;;5027621;28;20461;-66
2022/04/20 00:59:57;;;;;;;8.35;4.82;;;5.80;72.40;;;;;;5040503;28;20061;-64
2022/04/20 01:02:22;;;;;;;8.02;4.28;;;5.80;72.50;;;;;;5039559;28;20029;-65
2022/04/20 01:04:48;;;;;;;8.55;4.28;;;5.80;72.50;;;;;;5036157;28;20032;-65
2022/04/20 01:07:15;;;;;;;8.48;4.53;;;5.80;72.50;;;;;;5037828;28;20033;-65
2022/04/20 01:09:42;;;;;;;9.30;4.85;;;5.70;72.40;;;;;;5043550;28;20041;-64
2022/04/20 01:12:08;;;;;;;10.30;5.07;;;5.70;72.70;;;;;;5047095;28;20037;-65
2022/04/20 01:14:35;;;;;;;6.05;3.97;;;5.60;73.00;;;;;;5045270;28;20044;-65
2022/04/20 01:17:01;;;;;;;8.32;4.53;;;5.60;73.20;;;;;;5031594;28;20069;-65
2022/04/20 01:19:34;;;;;;;8.25;4.65;;;5.50;73.30;;;;;;5016980;28;20072;-66
2022/04/20 01:22:01;;;;;;;9.50;5.53;;;5.60;73.90;;;;;;5039834;28;20084;-64
2022/04/20 01:24:27;;;;;;;8.50;4.32;;;5.60;73.80;;;;;;5047633;28;20044;-65
2022/04/20 01:26:52;;;;;;;9.35;4.40;;;5.50;73.90;;;;;;5039471;28;20400;-64
2022/04/20 01:29:19;;;;;;;8.48;5.30;;;5.50;73.80;;;;;;5045604;28;20083;-65
2022/04/20 01:31:44;;;;;;;7.18;4.65;;;5.40;73.90;;;;;;5043180;28;20042;-65
2022/04/20 01:34:10;;;;;;;10.65;5.20;;;5.40;74.20;;;;;;5036715;28;20060;-64
2022/04/20 01:36:36;;;;;;;9.65;5.18;;;5.40;74.60;;;;;;5039939;28;20044;-64
2022/04/20 01:39:01;;;;;;;9.95;4.68;;;5.30;74.40;;;;;;5046179;28;20033;-64
2022/04/20 01:41:27;;;;;;;8.02;4.93;;;5.30;74.60;;;;;;5038243;28;20504;-66
2022/04/20 01:43:52;;;;;;;8.75;4.97;;;5.30;74.60;;;;;;5040985;28;20055;-64
2022/04/20 01:46:18;;;;;;;11.15;5.50;;;5.30;74.70;;;;;;5043576;28;20037;-64
2022/04/20 01:48:43;;;;;;;7.82;4.32;;;5.30;74.70;;;;;;5045044;28;20404;-65
2022/04/20 01:53:53;;;;;;;8.63;5.00;;;5.10;74.80;;;;;;5031438;28;20460;-65
2022/04/20 01:56:19;;;;;;;10.30;5.07;;;5.20;75.00;;;;;;5042194;28;20037;-64
2022/04/20 01:58:45;;;;;;;5.63;4.47;;;5.20;75.00;;;;;;5045028;28;20477;-65
2022/04/20 02:03:54;;;;;;;6.43;4.72;;;5.10;74.90;;;;;;5047015;28;20041;-66
2022/04/20 02:06:20;;;;;;;10.35;5.45;;;5.10;74.90;;;;;;5039349;28;20045;-64
2022/04/20 02:08:45;;;;;;;11.00;5.07;;;5.10;75.10;;;;;;5041183;28;20039;-64
2022/04/20 02:11:11;;;;;;;11.30;4.93;;;5.20;75.10;;;;;;5049711;28;20071;-65
2022/04/20 02:13:36;;;;;;;12.32;5.63;;;5.10;75.10;;;;;;5036000;28;20040;-64
2022/04/20 02:16:02;;;;;;;9.93;5.97;;;5.10;75.10;;;;;;5041883;28;20034;-64
2022/04/20 02:18:28;;;;;;;9.48;5.05;;;5.10;75.80;;;;;;5043183;28;20045;-64
2022/04/20 02:20:53;;;;;;;9.45;5.10;;;5.00;75.50;;;;;;5049768;28;20477;-64
2022/04/20 02:23:19;;;;;;;8.63;5.10;;;5.00;75.30;;;;;;5038574;28;20112;-65
2022/04/20 02:25:44;;;;;;;10.05;5.20;;;4.90;75.30;;;;;;5035370;28;20040;-65
2022/04/20 02:28:10;;;;;;;9.60;5.55;;;4.80;75.50;;;;;;5039822;28;20045;-64
2022/04/20 02:30:35;;;;;;;11.73;5.50;;;4.80;75.90;;;;;;5029417;28;20852;-66
2022/04/20 02:33:01;;;;;;;10.10;5.35;;;4.80;76.00;;;;;;5047983;28;20083;-64
2022/04/20 02:35:27;;;;;;;9.15;5.00;;;4.80;76.00;;;;;;5037808;28;20113;-64
2022/04/20 02:37:53;;;;;;;8.93;4.80;;;4.80;76.00;;;;;;5044337;28;20040;-66
2022/04/20 02:40:19;;;;;;;12.98;5.57;;;4.80;76.10;;;;;;5042807;28;20041;-65
2022/04/20 02:42:45;;;;;;;11.00;5.95;;;4.80;76.20;;;;;;5036853;28;20099;-65
2022/04/20 02:45:11;;;;;;;8.52;4.70;;;4.80;76.40;;;;;;5045266;28;20049;-65
2022/04/20 02:47:37;;;;;;;10.30;4.82;;;4.70;76.30;;;;;;5032131;28;20059;-64
2022/04/20 02:50:02;;;;;;;10.55;4.85;;;4.70;76.50;;;;;;5034118;28;20042;-64
2022/04/20 02:52:28;;;;;;;13.48;5.65;;;4.70;76.60;;;;;;5048675;28;20095;-64
2022/04/20 02:54:53;;;;;;;11.25;5.18;;;4.70;76.60;;;;;;5043002;28;20110;-64
2022/04/20 02:57:19;;;;;;;10.25;5.07;;;4.70;76.80;;;;;;5039788;28;20468;-64
2022/04/20 02:59:44;;;;;;;10.45;5.68;;;4.60;76.80;;;;;;5048595;28;20094;-65
2022/04/20 03:02:10;;;;;;;11.02;5.35;;;4.60;77.00;;;;;;5049854;28;20066;-64
2022/04/20 03:04:36;;;;;;;8.27;4.80;;;4.50;77.00;;;;;;5041485;28;20377;-66
2022/04/20 03:07:01;;;;;;;10.73;4.90;;;4.50;77.20;;;;;;5044815;28;20045;-65
2022/04/20 03:09:27;;;;;;;9.35;4.93;;;4.50;77.40;;;;;;5041696;28;20508;-65
2022/04/20 03:11:53;;;;;;;9.43;5.03;;;4.50;77.50;;;;;;5043684;28;20068;-65
2022/04/20 03:14:18;;;;;;;7.80;5.30;;;4.50;77.70;;;;;;5036774;28;20127;-66
2022/04/20 03:16:44;;;;;;;11.50;5.28;;;4.40;77.80;;;;;;5023794;28;20033;-64
2022/04/20 03:19:10;;;;;;;10.73;5.20;;;4.40;77.80;;;;;;5037186;28;20187;-64
2022/04/20 03:21:35;;;;;;;9.18;4.72;;;4.40;77.90;;;;;;5042050;28;20112;-64
2022/04/20 03:24:01;;;;;;;14.10;5.30;;;4.30;78.10;;;;;;5042096;28;20032;-65
2022/04/20 03:26:27;;;;;;;8.88;4.85;;;4.20;78.10;;;;;;5042016;28;20056;-65
2022/04/20 03:28:52;;;;;;;8.73;4.88;;;4.20;78.20;;;;;;5046245;28;20041;-64
2022/04/20 03:31:18;;;;;;;9.95;5.05;;;4.20;78.50;;;;;;5040297;28;20044;-64
2022/04/20 03:33:44;;;;;;;13.68;4.93;;;4.10;78.80;;;;;;5031528;28;20044;-65
2022/04/20 03:36:10;;;;;;;9.20;5.10;;;4.10;79.10;;;;;;5034136;28;20072;-65
2022/04/20 03:38:36;;;;;;;9.32;5.18;;;4.00;79.00;;;;;;5033267;28;20112;-64
2022/04/20 03:41:05;;;;;;;14.07;5.35;;;4.00;79.30;;;;;;5046230;28;20852;-65
2022/04/20 03:43:31;;;;;;;10.52;5.10;;;4.00;79.30;;;;;;5043379;28;20068;-64
2022/04/20 03:45:57;;;;;;;7.93;4.82;;;4.00;79.90;;;;;;5039344;28;20040;-64
2022/04/20 03:48:23;;;;;;;9.43;4.72;;;4.00;79.70;;;;;;5033948;28;20065;-65
2022/04/20 03:50:50;;;;;;;7.38;4.65;;;4.00;79.70;;;;;;5039262;28;20049;-65
2022/04/20 03:53:16;;;;;;;14.63;5.18;;;3.90;79.60;;;;;;5033730;28;20398;-64
2022/04/20 03:55:41;;;;;;;7.28;4.65;;;3.90;79.90;;;;;;5017764;28;20048;-64
2022/04/20 03:58:07;;;;;;;8.73;5.22;;;3.90;80.10;;;;;;5043100;28;20038;-65
2022/04/20 04:00:33;;;;;;;8.50;4.75;;;3.80;79.90;;;;;;5038488;28;20030;-66
2022/04/20 04:02:58;;;;;;;7.63;4.50;;;3.80;80.10;;;;;;5055651;28;20069;-64
2022/04/20 04:05:24;;;;;;;10.48;5.32;;;3.80;80.70;;;;;;5034100;28;20079;-65
2022/04/20 04:07:49;;;;;;;8.80;4.65;;;3.70;80.40;;;;;;5039882;28;20041;-65
2022/04/20 04:10:15;;;;;;;8.73;4.82;;;3.70;80.60;;;;;;5033086;28;20033;-65
2022/04/20 04:12:41;;;;;;;9.02;4.95;;;3.70;80.60;;;;;;5047304;28;20035;-64
2022/04/20 04:15:07;;;;;;;10.93;4.85;;;3.80;80.90;;;;;;5046610;28;20032;-65
2022/04/20 04:17:33;;;;;;;11.93;5.20;;;3.70;81.00;;;;;;5041084;28;20049;-64
2022/04/20 04:19:59;;;;;;;9.85;5.40;;;3.70;81.20;;;;;;5038548;28;20032;-64
2022/04/20 04:22:24;;;;;;;8.02;4.85;;;3.70;81.40;;;;;;5036980;28;20037;-65
2022/04/20 04:24:50;;;;;;;8.32;4.63;;;3.70;81.10;;;;;;5041262;28;20072;-64
2022/04/20 04:27:17;;;;;;;11.07;5.03;;;3.70;81.40;;;;;;5040513;28;20544;-65
2022/04/20 04:29:42;;;;;;;9.73;5.20;;;3.60;81.40;;;;;;5046060;28;20041;-64
2022/04/20 04:32:08;;;;;;;12.27;4.80;;;3.60;81.40;;;;;;5039023;28;20052;-64
2022/04/20 04:34:34;;;;;;;9.63;5.10;;;3.60;81.50;;;;;;5039392;28;20063;-64
2022/04/20 04:37:00;;;;;;;8.93;4.95;;;3.60;81.50;;;;;;5042925;28;20049;-65
2022/04/20 04:39:28;;;;;;;8.07;4.88;;;3.60;81.70;;;;;;5029409;28;20042;-64
2022/04/20 04:41:56;;;;;;;7.82;4.75;;;3.60;82.00;;;;;;5038504;28;20041;-65
2022/04/20 04:44:22;;;;;;;8.95;5.50;;;3.60;81.80;;;;;;5032064;28;20057;-65
2022/04/20 04:49:33;;;;;;;11.25;4.95;;;3.50;82.10;;;;;;5036790;28;20103;-65
2022/04/20 04:51:59;;;;;;;7.10;4.28;;;3.60;82.40;;;;;;5037667;28;20069;-63
2022/04/20 04:54:25;;;;;;;8.95;5.00;;;3.60;82.10;;;;;;5035573;28;20400;-66
2022/04/20 04:56:52;;;;;;;9.23;5.03;;;3.60;82.40;;;;;;5039064;28;20053;-64
2022/04/20 04:59:18;;;;;;;8.43;4.90;;;3.60;82.30;;;;;;5031859;28;20111;-63
2022/04/20 05:01:44;;;;;;;6.35;4.68;;;3.70;82.90;;;;;;5032018;28;20111;-65
2022/04/20 05:04:11;;;;;;;9.02;4.85;;;3.70;82.50;;;;;;5043239;28;20084;-64
2022/04/20 05:06:37;;;;;;;7.13;4.93;;;3.70;82.60;;;;;;5044846;28;20036;-65
2022/04/20 05:09:03;;;;;;;8.80;4.90;;;3.70;82.80;;;;;;5039915;28;20104;-64
2022/04/20 05:11:28;;;;;;;11.60;5.28;;;3.70;82.90;;;;;;5031961;28;20101;-64
2022/04/20 05:13:54;;;;;;;9.00;4.68;;;3.80;83.00;;;;;;5038658;28;20377;-64
2022/04/20 05:16:20;;;;;;;7.70;4.75;;;3.80;82.70;;;;;;5046331;28;20148;-65
2022/04/20 05:18:46;;;;;;;10.60;4.78;;;3.90;83.20;;;;;;5040296;28;20045;-64
2022/04/20 05:21:11;;;;;;;9.93;5.68;;;4.00;82.80;;;;;;5046389;28;20033;-65
2022/04/20 05:23:37;;;;;;;6.45;4.55;;;4.00;82.60;;;;;;5039512;28;20039;-65
2022/04/20 05:26:02;;;;;;;7.82;4.78;;;4.10;82.60;;;;;;5038838;28;20558;-66
2022/04/20 05:28:28;;;;;;;9.57;5.35;;;4.10;82.60;;;;;;5036344;28;20067;-65
2022/04/20 05:30:54;;;;;;;9.25;5.40;;;4.20;82.50;;;;;;5050498;28;20041;-64
2022/04/20 05:33:20;;;;;;;7.95;4.60;;;4.30;82.50;;;;;;5051555;28;20052;-66
2022/04/20 05:35:46;;;;;;;10.02;5.70;;;4.40;82.40;;;;;;5047854;28;20048;-64
2022/04/20 05:43:40;;;;;;;8.98;5.15;;;4.80;81.90;;;;;;5039347;28;20603;-65
2022/04/20 05:46:06;;;;;;;7.07;4.78;;;4.90;81.60;;;;;;5046171;28;20044;-65
2022/04/20 05:48:32;;;;;;;9.10;5.38;;;5.00;81.60;;;;;;5042437;28;20037;-65
2022/04/20 05:50:58;;;;;;;10.35;5.25;;;5.10;81.60;;;;;;5048557;28;20488;-66
2022/04/20 05:53:23;;;;;;;9.35;5.00;;;5.20;81.40;;;;;;5039194;28;20053;-66
2022/04/20 05:55:49;;;;;;;9.82;5.22;;;5.30;81.30;;;;;;5038159;28;20041;-66
2022/04/20 05:58:14;;;;;;;7.80;4.90;;;5.50;80.90;;;;;;5041678;28;20029;-64
2022/04/20 06:00:40;;;;;;;9.13;5.38;;;5.60;80.70;;;;;;5039798;28;20080;-65
2022/04/20 06:03:07;;;;;;;6.63;4.75;;;5.70;80.50;;;;;;5023820;28;20038;-64
2022/04/20 06:05:32;;;;;;;9.20;4.80;;;5.80;80.10;;;;;;5041877;28;20067;-64
2022/04/20 06:07:58;;;;;;;8.43;4.93;;;5.90;79.90;;;;;;5025945;28;20049;-65
2022/04/20 06:10:23;;;;;;;9.73;4.97;;;6.10;79.70;;;;;;5049619;28;20485;-66
2022/04/20 06:12:49;;;;;;;9.63;5.53;;;6.20;79.60;;;;;;5039707;28;20043;-65
2022/04/20 06:15:15;;;;;;;9.05;5.65;;;6.50;80.10;;;;;;5038372;28;20077;-65
2022/04/20 06:17:41;;;;;;;8.55;4.93;;;6.70;80.40;;;;;;5044983;28;20113;-65
2022/04/20 06:20:07;;;;;;;10.05;5.45;;;7.00;80.60;;;;;;5041908;28;20065;-65
2022/04/20 06:22:33;;;;;;;8.18;5.35;;;7.20;80.70;;;;;;5044644;28;20583;-65
2022/04/20 06:24:58;;;;;;;9.60;5.13;;;7.50;80.70;;;;;;5044582;28;20038;-65
2022/04/20 06:27:30;;;;;;;6.90;5.13;;;7.80;80.70;;;;;;5043729;28;20037;-67
2022/04/20 06:29:56;;;;;;;8.27;5.32;;;8.10;79.80;;;;;;5044059;28;20073;-65
2022/04/20 06:32:23;;;;;;;11.07;5.53;;;8.40;80.30;;;;;;5039856;28;20095;-65
2022/04/20 06:34:50;;;;;;;7.05;4.43;;;8.60;79.40;;;;;;5032170;28;20077;-66
2022/04/20 06:37:17;;;;;;;7.95;5.28;;;8.80;79.30;;;;;;5039586;28;20052;-66
2022/04/20 06:39:43;;;;;;;10.07;5.22;;;9.00;78.60;;;;;;5051444;28;20132;-66
2022/04/20 06:42:08;;;;;;;8.88;5.38;;;9.20;76.80;;;;;;5036954;28;20116;-66
2022/04/20 06:44:34;;;;;;;7.28;5.53;;;9.30;76.70;;;;;;5033189;28;20489;-68
2022/04/20 06:46:59;;;;;;;9.27;5.75;;;9.60;75.70;;;;;;5041661;28;20405;-65
2022/04/20 06:49:25;;;;;;;10.50;5.00;;;9.70;75.00;;;;;;5034932;28;20049;-66
2022/04/20 07:00:05;;;;;;;11.55;5.18;;;10.40;70.60;;;;;;5038023;28;20036;-67
2022/04/20 07:02:31;;;;;;;8.05;4.97;;;10.60;70.10;;;;;;5043740;28;20048;-67
2022/04/20 07:04:57;;;;;;;11.45;5.18;;;10.80;69.80;;;;;;5045110;28;20045;-68
2022/04/20 07:07:23;;;;;;;6.95;4.68;;;11.20;69.30;;;;;;5050201;28;20037;-67
2022/04/20 07:09:48;;;;;;;7.68;4.57;;;11.50;68.00;;;;;;5036386;28;20053;-67
2022/04/20 07:12:14;;;;;;;7.30;5.05;;;11.60;66.40;;;;;;5020911;28;20496;-66
2022/04/20 07:14:40;;;;;;;6.43;4.80;;;11.70;65.40;;;;;;5042183;28;20048;-67
2022/04/20 07:17:07;;;;;;;7.07;5.07;;;11.80;63.90;;;;;;5033797;28;20538;-67
2022/04/20 07:19:34;;;;;;;7.63;4.32;;;11.80;62.20;;;;;;5043282;28;20040;-67
2022/04/20 07:22:00;;;;;;;8.10;4.88;;;11.90;61.30;;;;;;5026167;28;20045;-66
2022/04/20 07:24:25;;;;;;;6.28;4.53;;;12.20;61.50;;;;;;5069186;28;20396;-66
2022/04/20 07:26:51;;;;;;;6.22;4.40;;;12.40;56.40;;;;;;5033641;28;20053;-66
2022/04/20 07:29:17;;;;;;;5.35;3.80;;;12.60;59.70;;;;;;5030287;28;20056;-67
2022/04/20 07:31:42;;;;;;;5.55;3.78;;;12.80;58.90;;;;;;5033559;28;20550;-67
2022/04/20 07:34:08;;;;;;;5.13;3.55;;;13.10;58.20;;;;;;5044707;28;20044;-66
2022/04/20 07:36:33;;;;;;;7.68;3.83;;;13.00;55.90;;;;;;5050238;28;20041;-67
2022/04/20 07:38:59;;;;;;;5.43;3.40;;;13.20;55.50;;;;;;5043137;28;20470;-67
2022/04/20 07:41:25;;;;;;;4.90;3.42;;;13.50;53.70;;;;;;5041533;28;20041;-68
2022/04/20 07:43:51;;;;;;;4.07;3.20;;;13.60;53.60;;;;;;5017410;28;20045;-68
2022/04/20 07:46:19;;;;;;;4.75;3.15;;;13.90;52.90;;;;;;5038240;28;20561;-68
2022/04/20 07:48:44;;;;;;;3.38;2.80;;;14.00;51.30;;;;;;5024276;28;20477;-69
2022/04/20 07:51:10;;;;;;;4.65;3.58;;;14.30;49.40;;;;;;5033417;28;20131;-68
2022/04/20 07:53:36;;;;;;;7.55;3.25;;;14.40;50.30;;;;;;5039714;28;20053;-67
2022/04/20 07:56:02;;;;;;;5.95;3.40;;;14.60;49.60;;;;;;5036145;28;20127;-67
2022/04/20 07:58:28;;;;;;;4.30;3.22;;;14.70;49.30;;;;;;5042068;28;20052;-67
2022/04/20 08:00:53;;;;;;;3.45;3.00;;;14.70;49.10;;;;;;5030085;28;20042;-67
2022/04/20 08:03:19;;;;;;;4.63;3.13;;;15.10;48.90;;;;;;5046102;28;20472;-68
2022/04/20 08:05:53;;;;;;;3.90;2.70;;;15.00;47.40;;;;;;5029820;28;20384;-67
2022/04/20 08:08:20;;;;;;;4.82;3.05;;;15.20;45.70;;;;;;5032934;28;20088;-67
2022/04/20 08:10:45;;;;;;;3.92;2.92;;;15.60;46.00;;;;;;5037571;28;20465;-68
2022/04/20 08:15:55;;;;;;;5.55;3.08;;;15.70;45.80;;;;;;5049288;28;20064;-67
2022/04/20 08:18:22;;;;;;;4.40;3.00;;;15.60;45.10;;;;;;5043784;28;20036;-66
2022/04/20 08:20:48;;;;;;;3.65;2.70;;;15.50;44.30;;;;;;5043913;28;20404;-67
2022/04/20 08:23:14;;;;;;;4.13;2.78;;;15.30;43.80;;;;;;5033780;28;20041;-68
2022/04/20 08:25:40;;;;;;;3.83;2.47;;;15.50;42.80;;;;;;5033606;28;20043;-66
2022/04/20 08:28:10;;;;;;;5.38;2.30;;;15.80;41.70;;;;;;5043455;28;20121;-71
2022/04/20 08:30:37;;;;;;;3.23;2.47;;;16.00;40.20;;;;;;5024487;28;20393;-67
2022/04/20 08:33:07;;;;;;;3.25;2.47;;;16.30;41.20;;;;;;5047934;28;20134;-68
2022/04/20 08:35:37;;;;;;;3.92;2.45;;;16.50;39.00;;;;;;5048757;28;20037;-68
2022/04/20 08:38:06;;;;;;;2.78;2.17;;;16.70;39.70;;;;;;5036546;28;20029;-68
2022/04/20 08:40:33;;;;;;;2.53;2.05;;;16.90;39.80;;;;;;5039509;28;20090;-66
2022/04/20 08:43:01;;;;;;;3.38;2.42;;;17.00;38.30;;;;;;5044496;28;20033;-67
2022/04/20 08:45:28;;;;;;;4.07;1.77;;;17.00;38.10;;;;;;5027811;28;20045;-67
2022/04/20 08:47:56;;;;;;;4.13;2.10;;;17.30;38.10;;;;;;5044826;28;20231;-68
2022/04/20 08:50:23;;;;;;;5.97;2.35;;;18.00;37.00;;;;;;5035350;28;20040;-69
2022/04/20 08:52:50;;;;;;;3.22;1.98;;;18.00;34.80;;;;;;5027332;28;20065;-69
2022/04/20 08:55:19;;;;;;;2.22;1.90;;;17.80;34.50;;;;;;5049092;28;20420;-69
2022/04/20 08:57:47;;;;;;;3.75;1.80;;;18.00;34.50;;;;;;5040424;28;20045;-68
2022/04/20 09:00:22;;;;;;;3.83;1.95;;;18.50;34.20;;;;;;5031987;28;20037;-67
2022/04/20 09:02:56;;;;;;;2.50;1.90;;;18.50;33.10;;;;;;5040864;28;20049;-68
2022/04/20 09:05:23;;;;;;;2.13;1.70;;;19.10;31.70;;;;;;5035961;28;20529;-69
2022/04/20 09:07:49;;;;;;;2.63;2.08;;;19.30;32.50;;;;;;5047099;28;20104;-70
2022/04/20 09:10:16;;;;;;;2.00;1.80;;;19.20;31.40;;;;;;5034086;28;20489;-70
2022/04/20 09:12:43;;;;;;;4.60;2.10;;;19.40;30.60;;;;;;5036261;28;20046;-70
2022/04/20 09:15:11;;;;;;;2.60;1.63;;;19.60;31.20;;;;;;5026585;28;20070;-71
2022/04/20 09:17:45;;;;;;;2.40;1.60;;;19.50;30.00;;;;;;5050307;28;20076;-70
2022/04/20 09:20:20;;;;;;;2.80;1.60;;;19.60;30.10;;;;;;5043872;28;20469;-73
2022/04/20 09:23:03;;;;;;;2.42;1.70;;;18.90;28.60;;;;;;5048172;28;20036;-68
2022/04/20 09:25:34;;;;;;;3.30;1.90;;;18.60;29.40;;;;;;5049307;28;20041;-69
2022/04/20 09:28:01;;;;;;;1.73;1.40;;;18.20;31.10;;;;;;5040031;28;20044;-69
2022/04/20 09:30:32;;;;;;;2.50;1.90;;;18.00;31.90;;;;;;5037056;28;20397;-69
2022/04/20 09:32:58;;;;;;;3.17;1.90;;;17.70;32.40;;;;;;5058061;28;20288;-69
2022/04/20 09:35:24;;;;;;;3.25;1.83;;;17.20;33.00;;;;;;5047756;28;20148;-70
2022/04/20 09:38:07;;;;;;;3.28;1.92;;;17.40;33.40;;;;;;5050449;28;20524;-73
2022/04/20 09:40:34;;;;;;;3.25;1.60;;;17.80;31.30;;;;;;5032484;28;20405;-69
2022/04/20 09:43:06;;;;;;;3.72;2.13;;;18.50;31.90;;;;;;5036128;28;20041;-69
2022/04/20 09:45:33;;;;;;;2.58;1.60;;;19.10;30.70;;;;;;5022484;28;20033;-70
2022/04/20 09:51:13;;;;;;;3.10;1.70;;;19.00;30.00;;;;;;5047366;28;20580;-68
2022/04/20 09:53:40;;;;;;;7.15;1.98;;;18.60;31.30;;;;;;5038839;28;20045;-69
2022/04/20 09:56:23;;;;;;;2.78;1.90;;;18.20;31.70;;;;;;5038031;28;20065;-68
2022/04/20 09:59:04;;;;;;;2.38;2.00;;;17.90;30.30;;;;;;5043586;28;20033;-68
2022/04/20 10:01:35;;;;;;;2.53;1.60;;;18.70;30.40;;;;;;5037493;28;20438;-69
2022/04/20 10:04:02;;;;;;;2.58;1.70;;;19.40;29.00;;;;;;5045753;28;20400;-68
2022/04/20 10:06:29;;;;;;;2.65;1.50;;;20.00;28.60;;;;;;5032888;28;20394;-69
2022/04/20 10:08:55;;;;;;;2.95;1.83;;;20.50;28.40;;;;;;5034151;28;20057;-70
2022/04/20 10:11:22;;;;;;;3.60;1.60;;;21.20;27.90;;;;;;5044160;28;20049;-68
2022/04/20 10:16:05;;;;;;;2.63;1.88;;;21.70;27.40;;;;;;5040510;28;20044;-68
2022/04/20 10:16:39;;;;;;;2.97;1.90;;;21.90;27.30;;;;;;5047652;28;20064;-69
2022/04/20 10:19:13;;;;;;;2.22;1.85;;;21.40;27.40;;;;;;5042940;28;20041;-69
2022/04/20 10:21:49;;;;;;;3.95;1.90;;;22.00;27.20;;;;;;5042861;28;20037;-70
2022/04/20 10:24:19;;;;;;;2.13;1.92;;;22.30;26.60;;;;;;5043321;28;20036;-71
2022/04/20 10:26:46;;;;;;;2.70;1.85;;;22.20;26.90;;;;;;5050428;28;20068;-70
2022/04/20 10:29:21;;;;;;;2.35;1.40;;;22.10;27.00;;;;;;5037244;28;20493;-73
2022/04/20 10:32:00;;;;;;;2.05;1.80;;;21.60;25.80;;;;;;5043941;28;20048;-69
2022/04/20 10:34:26;;;;;;;3.83;1.60;;;21.50;27.70;;;;;;5037617;28;20064;-69
2022/04/20 10:37:03;;;;;;;4.60;2.00;;;20.90;27.70;;;;;;5027899;28;20530;-69
2022/04/20 10:39:36;;;;;;;2.35;1.73;;;20.60;26.90;;;;;;5044469;28;20068;-69
2022/04/20 10:42:11;;;;;;;3.28;1.70;;;20.80;27.80;;;;;;5042271;28;20128;-69
2022/04/20 10:44:55;;;;;;;3.15;1.67;;;20.60;27.50;;;;;;5043890;28;20037;-68
2022/04/20 10:47:24;;;;;;;2.03;1.60;;;19.70;27.10;;;;;;5043536;28;20046;-68
2022/04/20 10:49:51;;;;;;;2.28;1.75;;;18.90;28.90;;;;;;5024329;28;20037;-69
2022/04/20 10:52:35;;;;;;;2.60;1.75;;;18.80;29.40;;;;;;5043332;28;20049;-69
2022/04/20 10:55:00;;;;;;;2.42;1.60;;;18.00;29.10;;;;;;5017697;28;20418;-68
2022/04/20 10:57:37;;;;;;;5.43;1.92;;;17.30;29.70;;;;;;5037273;28;20052;-70
2022/04/20 11:00:18;;;;;;;4.15;1.92;;;17.20;32.30;;;;;;5044633;28;20037;-68
2022/04/20 11:02:55;;;;;;;2.55;1.60;;;17.20;31.70;;;;;;5055691;28;20041;-69
2022/04/20 11:05:22;;;;;;;2.72;1.70;;;17.20;31.50;;;;;;5035648;28;20048;-67
2022/04/20 11:08:05;;;;;;;2.15;1.67;;;17.20;32.40;;;;;;5042881;28;20053;-68
2022/04/20 11:10:32;;;;;;;2.88;1.55;;;17.20;32.30;;;;;;5019316;28;20082;-70
2022/04/20 11:19:10;;;;;;;2.33;2.10;;;17.50;32.30;;;;;;5047405;28;20053;-69
2022/04/20 11:21:37;;;;;;;3.38;1.83;;;17.20;30.90;;;;;;5035362;28;20073;-69
2022/04/20 11:24:05;;;;;;;2.42;1.98;;;17.00;31.90;;;;;;5040740;28;20175;-71
2022/04/20 11:26:39;;;;;;;2.78;1.40;;;17.20;32.90;;;;;;5050468;28;20049;-68
2022/04/20 11:29:15;;;;;;;2.92;1.75;;;17.10;32.90;;;;;;5028410;28;20452;-70
2022/04/20 11:31:48;;;;;;;5.97;1.58;;;17.20;32.30;;;;;;5038608;28;20041;-68
2022/04/20 11:34:16;;;;;;;2.33;1.60;;;17.20;32.50;;;;;;5030276;28;20096;-68
2022/04/20 11:36:51;;;;;;;4.45;1.77;;;17.50;32.50;;;;;;5045246;28;20056;-69
2022/04/20 11:39:18;;;;;;;1.85;1.45;;;17.50;31.20;;;;;;5030503;28;20049;-67
2022/04/20 11:41:48;;;;;;;4.15;1.40;;;17.60;31.80;;;;;;5041861;28;20064;-68
2022/04/20 11:44:21;;;;;;;;;;;17.50;31.30;;;;;;5046143;28;20466;-69
2022/04/20 11:46:47;;;;;;;2.45;1.90;;;17.20;28.90;;;;;;5048538;28;19928;-68
2022/04/20 11:49:13;;;;;;;3.42;1.63;;;17.40;30.50;;;;;;5049151;28;20079;-69
2022/04/20 11:51:57;;;;;;;3.22;1.75;;;17.40;30.60;;;;;;5049936;28;20380;-70
2022/04/20 11:54:24;;;;;;;1.77;1.40;;;17.60;30.50;;;;;;5062960;28;20056;-68
2022/04/20 11:56:50;;;;;;;1.33;1.10;;;17.30;29.50;;;;;;5029538;28;20052;-69
2022/04/20 11:59:21;;;;;;;2.20;1.30;;;17.20;29.40;;;;;;5033754;28;20041;-69
2022/04/20 12:01:47;;;;;;;3.47;1.42;;;17.10;30.00;;;;;;5037285;28;20116;-68
2022/04/20 12:04:34;;;;;;;2.03;1.40;;;17.50;30.20;;;;;;5040545;28;20033;-68
2022/04/20 12:07:01;;;;;;;4.38;2.15;;;17.30;29.50;;;;;;5031293;28;20053;-68
2022/04/20 12:09:28;;;;;;;2.75;1.48;;;17.50;29.70;;;;;;5049310;28;20128;-68
2022/04/20 12:12:02;;;;;;;2.90;1.77;;;17.50;30.30;;;;;;5034520;28;20124;-68
2022/04/20 12:14:32;;;;;;;1.77;1.67;;;17.60;30.70;;;;;;5032566;28;20249;-69
2022/04/20 12:17:01;;;;;;;1.25;1.15;;;17.80;29.40;;;;;;5039246;28;20037;-69
2022/04/20 12:19:28;;;;;;;2.53;1.45;;;17.80;29.90;;;;;;5063489;28;20474;-69
2022/04/20 12:21:54;;;;;;;3.25;1.60;;;18.10;30.20;;;;;;5040445;28;20041;-69
2022/04/20 12:24:27;;;;;;;2.75;1.40;;;18.50;30.30;;;;;;5030665;28;20382;-68
2022/04/20 12:26:57;;;;;;;3.30;1.60;;;18.80;29.40;;;;;;5047522;28;20485;-68
2022/04/20 12:29:25;;;;;;;2.03;1.42;;;18.90;29.50;;;;;;5064742;28;20045;-71
2022/04/20 12:31:54;;;;;;;2.00;1.42;;;18.70;28.50;;;;;;5048361;28;20040;-67
2022/04/20 12:34:21;;;;;;;2.72;1.42;;;19.00;29.20;;;;;;5048035;28;20120;-68
2022/04/20 12:37:05;;;;;;;1.70;1.48;;;19.20;28.90;;;;;;5034393;28;20037;-67
2022/04/20 12:39:35;;;;;;;2.45;1.85;;;19.20;27.70;;;;;;5028697;28;20046;-68
2022/04/20 12:42:04;;;;;;;2.85;1.80;;;19.10;28.40;;;;;;5028986;28;20063;-68
2022/04/20 12:44:36;;;;;;;4.75;1.42;;;19.60;28.90;;;;;;5041100;28;20171;-69
2022/04/20 12:47:22;;;;;;;2.63;1.70;;;19.80;27.50;;;;;;5028496;28;20438;-68
2022/04/20 12:49:48;;;;;;;2.35;2.05;;;21.20;27.00;;;;;;5029514;28;20456;-67
2022/04/20 12:52:25;;;;;;;2.67;1.60;;;22.00;26.60;;;;;;5020581;28;20057;-67
2022/04/20 12:55:10;;;;;;;2.95;2.08;;;22.10;25.90;;;;;;5044006;28;20055;-65
2022/04/20 13:03:10;;;;;;;4.95;2.30;;;22.70;26.70;;;;;;5039700;28;20048;-69
2022/04/20 13:05:38;;;;;;;3.78;2.15;;;23.20;26.20;;;;;;5043916;28;20493;-69
2022/04/20 13:08:05;;;;;;;5.15;1.95;;;24.80;25.80;;;;;;5036743;28;20036;-69
2022/04/20 13:10:33;;;;;;;2.88;1.60;;;25.70;25.30;;;;;;5042126;28;20118;-68
2022/04/20 13:12:59;;;;;;;4.25;2.08;;;26.60;25.10;;;;;;5012003;28;20045;-67
2022/04/20 13:15:25;;;;;;;3.15;1.67;;;27.70;24.20;;;;;;5024822;28;20064;-70
2022/04/20 13:17:51;;;;;;;3.47;1.98;;;27.60;23.10;;;;;;5025834;28;20041;-68
2022/04/20 13:20:18;;;;;;;2.05;1.77;;;28.20;23.00;;;;;;5016238;28;20038;-66
2022/04/20 13:22:44;;;;;;;5.15;1.80;;;28.80;22.20;;;;;;5038664;28;20048;-68
2022/04/20 13:27:54;;;;;;;5.10;2.30;;;30.20;22.20;;;;;;5032066;28;20045;-74
2022/04/20 13:30:24;;;;;;;4.45;2.55;;;29.00;22.10;;;;;;5044018;28;20041;-68
2022/04/20 13:32:59;;;;;;;2.53;2.33;;;30.10;22.20;;;;;;5052191;28;20084;-68
2022/04/20 13:35:25;;;;;;;3.30;2.50;;;29.80;21.80;;;;;;5052501;28;20048;-69